Time;durP1;ratioP1;P1;durP2;ratioP2;P2;SDS_P1;SDS_P2;PMS_P1;PMS_P2;Temp;Humidity;BMP_temperature;BMP_pressure;BME280_temperature;BME280_humidity;BME280_pressure;Samples;Min_cycle;Max_cycle;Signal;HPM_P1;HPM_P2
2021/08/28 00:00:10;;;;;;;6.37;5.23;;;;;;;;;;4952622;28;20218;-87
2021/08/28 00:03:14;;;;;;;7.07;4.90;;;;;;;;;;4982753;28;20187;-87
2021/08/28 00:06:18;;;;;;;6.90;5.27;;;;;;;;;;4975157;28;20183;-86
2021/08/28 00:09:22;;;;;;;6.07;4.80;;;;;;;;;;4974649;28;20219;-86
2021/08/28 00:12:26;;;;;;;6.43;5.17;;;;;;;;;;4967512;28;20214;-86
2021/08/28 00:15:31;;;;;;;8.00;4.97;;;;;;;;;;4965601;28;20183;-86
2021/08/28 00:18:36;;;;;;;6.20;5.07;;;;;;;;;;4971723;28;20222;-86
2021/08/28 00:21:40;;;;;;;6.63;5.27;;;;;;;;;;4959069;28;20198;-86
2021/08/28 00:24:44;;;;;;;10.83;5.03;;;;;;;;;;4971455;28;20206;-86
2021/08/28 00:27:48;;;;;;;5.83;5.00;;;;;;;;;;4971543;28;20198;-86
2021/08/28 00:30:52;;;;;;;7.37;5.20;;;;;;;;;;4971002;28;20194;-86
2021/08/28 00:33:56;;;;;;;6.80;5.10;;;;;;;;;;4963059;28;20543;-86
2021/08/28 00:37:01;;;;;;;7.57;5.47;;;;;;;;;;4966508;28;20193;-86
2021/08/28 00:40:06;;;;;;;7.33;5.87;;;;;;;;;;4971117;28;20229;-86
2021/08/28 00:43:11;;;;;;;9.10;5.53;;;;;;;;;;4962860;28;20198;-86
2021/08/28 00:46:15;;;;;;;9.20;6.07;;;;;;;;;;4974271;28;20187;-86
2021/08/28 00:49:19;;;;;;;7.53;5.70;;;;;;;;;;4980282;28;20696;-86
2021/08/28 00:52:23;;;;;;;7.73;6.00;;;;;;;;;;4971232;28;20572;-86
2021/08/28 00:55:32;;;;;;;8.13;5.70;;;;;;;;;;4971417;28;20198;-86
2021/08/28 00:58:36;;;;;;;12.77;5.80;;;;;;;;;;4971446;28;20217;-86
2021/08/28 01:01:42;;;;;;;7.10;5.03;;;;;;;;;;4982427;28;20202;-86
2021/08/28 01:05:12;;;;;;;8.03;5.80;;;;;;;;;;4982383;28;20186;-86
2021/08/28 01:08:39;;;;;;;7.20;5.33;;;;;;;;;;4972212;28;20621;-85
2021/08/28 01:12:18;;;;;;;6.73;5.97;;;;;;;;;;4982233;28;20542;-85
2021/08/28 01:15:37;;;;;;;9.50;5.73;;;;;;;;;;4972593;28;20182;-85
2021/08/28 01:18:43;;;;;;;11.13;5.90;;;;;;;;;;4993418;28;20217;-85
2021/08/28 01:21:47;;;;;;;11.07;5.63;;;;;;;;;;4969845;28;20206;-85
2021/08/28 01:25:06;;;;;;;8.33;5.97;;;;;;;;;;4964081;28;20203;-85
2021/08/28 01:28:34;;;;;;;8.63;5.53;;;;;;;;;;4965217;28;20203;-86
2021/08/28 01:31:40;;;;;;;8.30;5.77;;;;;;;;;;4975920;28;20195;-85
2021/08/28 01:34:46;;;;;;;7.90;5.73;;;;;;;;;;4963035;28;20179;-85
2021/08/28 01:37:52;;;;;;;6.57;5.47;;;;;;;;;;4981863;28;20190;-85
2021/08/28 01:41:14;;;;;;;7.40;5.63;;;;;;;;;;4984401;28;20238;-85
2021/08/28 01:44:19;;;;;;;7.50;5.97;;;;;;;;;;4982594;28;20175;-85
2021/08/28 01:47:28;;;;;;;7.30;5.73;;;;;;;;;;4971117;28;20198;-85
2021/08/28 01:50:32;;;;;;;7.30;5.27;;;;;;;;;;4964321;28;20218;-85
2021/08/28 01:53:45;;;;;;;11.07;5.07;;;;;;;;;;4971985;28;20217;-85
2021/08/28 01:56:51;;;;;;;7.00;5.00;;;;;;;;;;4981950;28;20207;-85
2021/08/28 01:59:56;;;;;;;7.37;5.27;;;;;;;;;;4970670;28;20226;-85
2021/08/28 02:03:18;;;;;;;8.27;5.07;;;;;;;;;;4998529;28;20190;-85
2021/08/28 02:06:53;;;;;;;6.33;5.27;;;;;;;;;;4984897;28;20186;-85
2021/08/28 02:10:03;;;;;;;8.47;5.47;;;;;;;;;;4974084;28;20225;-85
2021/08/28 02:13:39;;;;;;;6.80;5.70;;;;;;;;;;4996593;28;20214;-85
2021/08/28 02:16:45;;;;;;;8.10;6.07;;;;;;;;;;4980240;28;20534;-85
2021/08/28 02:19:52;;;;;;;6.97;5.77;;;;;;;;;;4973968;28;20225;-85
2021/08/28 02:23:31;;;;;;;7.90;6.33;;;;;;;;;;4988217;28;20178;-85
2021/08/28 02:27:05;;;;;;;7.57;5.80;;;;;;;;;;4995295;28;20681;-85
2021/08/28 02:30:13;;;;;;;8.07;5.13;;;;;;;;;;4984621;28;20225;-85
2021/08/28 02:33:45;;;;;;;7.30;5.83;;;;;;;;;;4988310;28;20554;-85
2021/08/28 02:36:50;;;;;;;8.20;6.10;;;;;;;;;;4972999;28;20190;-85
2021/08/28 02:39:56;;;;;;;7.77;6.43;;;;;;;;;;4973237;28;20221;-85
2021/08/28 02:43:02;;;;;;;10.27;6.33;;;;;;;;;;4995855;28;20187;-85
2021/08/28 02:46:08;;;;;;;8.27;6.20;;;;;;;;;;4984308;28;20190;-85
2021/08/28 02:49:14;;;;;;;7.33;5.97;;;;;;;;;;4984214;28;20222;-85
2021/08/28 02:52:22;;;;;;;7.13;5.70;;;;;;;;;;4965337;28;20183;-85
2021/08/28 02:55:30;;;;;;;8.50;6.23;;;;;;;;;;4972298;28;20546;-85
2021/08/28 02:58:35;;;;;;;8.13;6.10;;;;;;;;;;4965304;28;20222;-85
2021/08/28 03:01:40;;;;;;;7.57;5.80;;;;;;;;;;4976089;28;20183;-85
2021/08/28 03:04:45;;;;;;;8.70;6.30;;;;;;;;;;4964973;28;20171;-85
2021/08/28 03:07:50;;;;;;;8.97;6.87;;;;;;;;;;4980023;28;20194;-85
2021/08/28 03:10:57;;;;;;;10.67;6.73;;;;;;;;;;4965216;28;20183;-85
2021/08/28 03:14:02;;;;;;;8.20;6.10;;;;;;;;;;4964628;28;20211;-85
2021/08/28 03:17:10;;;;;;;9.00;6.97;;;;;;;;;;4990295;28;20194;-86
2021/08/28 03:20:19;;;;;;;10.60;7.50;;;;;;;;;;4964806;28;20218;-86
2021/08/28 03:23:27;;;;;;;7.97;6.73;;;;;;;;;;4970390;28;20186;-85
2021/08/28 03:26:35;;;;;;;10.13;7.30;;;;;;;;;;4984120;28;20198;-85
2021/08/28 03:29:41;;;;;;;9.17;7.13;;;;;;;;;;4971920;28;20230;-85
2021/08/28 03:32:46;;;;;;;9.27;7.03;;;;;;;;;;4971818;23;20231;-85
2021/08/28 03:35:51;;;;;;;5.63;4.83;;;;;;;;;;4934777;29;20184;-87
2021/08/28 03:38:55;;;;;;;6.30;4.33;;;;;;;;;;4956477;29;20195;-86
2021/08/28 03:42:02;;;;;;;4.00;3.47;;;;;;;;;;4935022;29;20227;-87
2021/08/28 03:45:08;;;;;;;5.73;3.63;;;;;;;;;;4934668;29;20180;-87
2021/08/28 03:48:20;;;;;;;3.90;3.23;;;;;;;;;;4935102;29;20547;-87
2021/08/28 03:51:24;;;;;;;3.63;3.00;;;;;;;;;;4926227;29;20227;-85
2021/08/28 03:54:29;;;;;;;5.03;3.13;;;;;;;;;;4915390;29;20212;-87
2021/08/28 03:57:34;;;;;;;4.73;3.43;;;;;;;;;;4918095;29;20196;-86
2021/08/28 04:00:38;;;;;;;3.73;3.00;;;;;;;;;;4945123;29;20543;-86
2021/08/28 04:03:43;;;;;;;3.43;2.73;;;;;;;;;;4934176;29;20203;-86
2021/08/28 04:06:48;;;;;;;4.23;3.43;;;;;;;;;;4942891;29;20539;-86
2021/08/28 04:09:53;;;;;;;5.10;3.77;;;;;;;;;;4945871;29;20191;-85
2021/08/28 04:12:57;;;;;;;5.17;3.70;;;;;;;;;;4933961;29;20230;-85
2021/08/28 04:16:01;;;;;;;5.83;3.83;;;;;;;;;;4946168;29;20207;-85
2021/08/28 04:19:12;;;;;;;5.70;3.90;;;;;;;;;;4944471;29;20195;-85
2021/08/28 04:22:24;;;;;;;6.53;4.17;;;;;;;;;;4940256;29;20210;-86
2021/08/28 04:25:48;;;;;;;4.20;3.80;;;;;;;;;;4953038;29;20215;-85
2021/08/28 04:29:03;;;;;;;5.50;3.70;;;;;;;;;;4921795;29;20196;-86
2021/08/28 04:32:07;;;;;;;4.00;3.00;;;;;;;;;;4948284;29;20231;-87
2021/08/28 04:35:11;;;;;;;7.50;3.20;;;;;;;;;;4934243;29;20199;-86
2021/08/28 04:38:18;;;;;;;2.77;2.30;;;;;;;;;;4938622;29;20211;-87
2021/08/28 04:41:24;;;;;;;3.87;2.50;;;;;;;;;;4946553;28;20218;-86
2021/08/28 04:44:28;;;;;;;4.13;2.17;;;;;;;;;;4946148;29;20516;-84
2021/08/28 04:47:33;;;;;;;2.17;1.83;;;;;;;;;;4959331;29;20195;-86
2021/08/28 04:50:38;;;;;;;1.90;1.70;;;;;;;;;;4934546;29;20662;-86
2021/08/28 04:53:42;;;;;;;2.20;1.93;;;;;;;;;;4944397;29;20544;-85
2021/08/28 04:56:47;;;;;;;2.83;2.03;;;;;;;;;;4931021;29;20210;-86
2021/08/28 04:59:51;;;;;;;2.47;2.27;;;;;;;;;;4946460;29;20504;-86
2021/08/28 05:03:15;;;;;;;2.37;2.17;;;;;;;;;;4948535;29;20211;-86
2021/08/28 05:06:19;;;;;;;2.70;2.50;;;;;;;;;;4944544;29;20183;-86
2021/08/28 05:09:23;;;;;;;5.20;3.53;;;;;;;;;;4925489;29;20188;-86
2021/08/28 05:12:28;;;;;;;4.10;3.33;;;;;;;;;;4929164;29;20219;-87
2021/08/28 05:15:50;;;;;;;7.73;3.77;;;;;;;;;;4943930;29;20532;-87
2021/08/28 05:18:54;;;;;;;4.23;3.47;;;;;;;;;;4927484;29;20531;-87
2021/08/28 05:22:01;;;;;;;5.80;4.30;;;;;;;;;;4933662;29;20227;-87
2021/08/28 05:25:25;;;;;;;5.27;4.70;;;;;;;;;;4943638;29;20188;-87
2021/08/28 05:28:30;;;;;;;4.83;4.20;;;;;;;;;;4914655;29;20200;-86
2021/08/28 05:31:34;;;;;;;5.20;4.70;;;;;;;;;;4935834;29;20232;-87
2021/08/28 05:34:39;;;;;;;4.97;4.00;;;;;;;;;;4953706;28;20467;-86
2021/08/28 05:38:08;;;;;;;7.17;4.53;;;;;;;;;;4956254;28;20207;-87
2021/08/28 05:41:14;;;;;;;4.90;4.40;;;;;;;;;;4947088;28;20227;-87
2021/08/28 05:44:18;;;;;;;5.20;3.87;;;;;;;;;;4928077;29;20640;-87
2021/08/28 05:47:22;;;;;;;4.07;3.67;;;;;;;;;;4928392;29;20631;-87
2021/08/28 05:50:26;;;;;;;7.50;4.20;;;;;;;;;;4933536;29;20188;-86
2021/08/28 05:53:31;;;;;;;4.80;4.30;;;;;;;;;;4936816;29;20188;-86
2021/08/28 05:56:35;;;;;;;5.57;5.07;;;;;;;;;;4945207;29;20196;-87
2021/08/28 05:59:40;;;;;;;7.93;7.23;;;;;;;;;;4943013;29;20643;-86
2021/08/28 06:02:47;;;;;;;6.60;4.93;;;;;;;;;;4928473;29;20227;-86
2021/08/28 06:05:59;;;;;;;5.10;4.60;;;;;;;;;;4928007;29;20180;-86
2021/08/28 06:09:23;;;;;;;6.47;4.87;;;;;;;;;;4956823;29;20203;-86
2021/08/28 06:12:46;;;;;;;5.50;4.43;;;;;;;;;;4950132;29;20219;-85
2021/08/28 06:16:13;;;;;;;6.00;4.37;;;;;;;;;;4939310;29;20180;-86
2021/08/28 06:19:18;;;;;;;5.23;4.53;;;;;;;;;;4931904;29;20655;-85
2021/08/28 06:22:23;;;;;;;6.20;4.50;;;;;;;;;;4937386;29;20230;-85
2021/08/28 06:25:27;;;;;;;5.37;4.60;;;;;;;;;;4947191;29;20195;-85
2021/08/28 06:28:31;;;;;;;6.70;6.10;;;;;;;;;;4947561;29;20196;-85
2021/08/28 06:31:35;;;;;;;4.87;4.37;;;;;;;;;;4958243;28;20234;-85
2021/08/28 06:34:39;;;;;;;5.83;4.20;;;;;;;;;;4957690;29;20682;-85
2021/08/28 06:37:43;;;;;;;4.73;4.03;;;;;;;;;;4947576;29;20195;-85
2021/08/28 06:41:25;;;;;;;3.77;3.43;;;;;;;;;;4952422;29;20219;-85
2021/08/28 06:44:48;;;;;;;4.23;3.53;;;;;;;;;;4957618;29;20195;-86
2021/08/28 06:48:21;;;;;;;5.97;3.80;;;;;;;;;;4957624;29;20199;-86
2021/08/28 06:51:43;;;;;;;5.40;3.70;;;;;;;;;;4957740;29;20219;-86
2021/08/28 06:55:06;;;;;;;5.67;4.37;;;;;;;;;;4948161;29;20216;-85
2021/08/28 06:58:29;;;;;;;5.53;3.67;;;;;;;;;;4934526;29;20196;-86
2021/08/28 07:01:51;;;;;;;4.60;4.20;;;;;;;;;;4948168;29;20227;-86
2021/08/28 07:05:21;;;;;;;3.83;3.50;;;;;;;;;;4945565;29;20199;-90
2021/08/28 07:08:28;;;;;;;4.27;3.87;;;;;;;;;;4945309;29;20203;-87
2021/08/28 07:11:32;;;;;;;4.13;3.73;;;;;;;;;;4945961;29;20219;-86
2021/08/28 07:14:41;;;;;;;3.27;2.77;;;;;;;;;;4946455;29;20212;-89
2021/08/28 07:17:50;;;;;;;11.90;3.77;;;;;;;;;;4945499;29;20199;-92
2021/08/28 07:20:55;;;;;;;3.47;2.83;;;;;;;;;;4946015;28;20188;-87
2021/08/28 07:24:00;;;;;;;3.03;2.73;;;;;;;;;;4945313;29;20199;-87
2021/08/28 07:27:17;;;;;;;2.50;2.30;;;;;;;;;;4945911;29;20192;-87
2021/08/28 07:30:50;;;;;;;2.20;2.00;;;;;;;;;;4956045;28;20650;-86
2021/08/28 07:33:54;;;;;;;2.73;2.43;;;;;;;;;;4944935;29;20623;-86
2021/08/28 07:36:58;;;;;;;2.20;2.00;;;;;;;;;;4944793;29;20654;-88
2021/08/28 07:40:05;;;;;;;3.07;2.47;;;;;;;;;;4934106;29;20532;-88
2021/08/28 07:43:10;;;;;;;3.10;2.80;;;;;;;;;;4934595;29;20215;-87
2021/08/28 07:46:19;;;;;;;3.13;2.70;;;;;;;;;;4934328;29;20196;-88
2021/08/28 07:49:37;;;;;;;3.70;2.37;;;;;;;;;;4935940;29;20192;-87
2021/08/28 07:52:42;;;;;;;2.90;2.70;;;;;;;;;;4944450;29;20227;-87
2021/08/28 07:55:47;;;;;;;2.70;2.50;;;;;;;;;;4955742;29;20207;-87
2021/08/28 07:58:52;;;;;;;2.50;2.30;;;;;;;;;;4954857;28;20187;-87
2021/08/28 08:01:57;;;;;;;3.27;2.23;;;;;;;;;;4933623;29;20222;-87
2021/08/28 08:05:02;;;;;;;3.93;2.67;;;;;;;;;;4945138;29;20184;-87
2021/08/28 08:08:25;;;;;;;2.30;2.10;;;;;;;;;;4946592;29;20192;-87
2021/08/28 08:11:48;;;;;;;2.17;1.90;;;;;;;;;;4950352;29;20693;-88
2021/08/28 08:15:04;;;;;;;2.00;1.80;;;;;;;;;;4926772;29;20204;-87
2021/08/28 08:18:27;;;;;;;1.87;1.60;;;;;;;;;;4936418;29;20188;-88
2021/08/28 08:21:42;;;;;;;1.67;1.50;;;;;;;;;;4954858;29;20231;-88
2021/08/28 08:25:10;;;;;;;2.50;1.20;;;;;;;;;;4934067;29;20180;-89
2021/08/28 08:28:42;;;;;;;1.97;1.10;;;;;;;;;;4929101;29;20184;-87
2021/08/28 08:32:07;;;;;;;1.13;0.70;;;;;;;;;;4952795;28;20239;-88
2021/08/28 08:35:23;;;;;;;3.73;2.50;;;;;;;;;;4941002;29;20207;-89
2021/08/28 08:38:27;;;;;;;33.47;22.17;;;;;;;;;;4933008;29;20188;-87
2021/08/28 08:41:34;;;;;;;15.10;9.07;;;;;;;;;;4943334;29;20252;-89
2021/08/28 08:44:40;;;;;;;2.03;1.60;;;;;;;;;;4940726;29;20187;-89
2021/08/28 08:47:45;;;;;;;2.60;1.43;;;;;;;;;;4951420;29;20207;-89
2021/08/28 08:50:54;;;;;;;1.40;1.10;;;;;;;;;;4929794;29;20199;-89
2021/08/28 08:53:59;;;;;;;1.83;0.70;;;;;;;;;;4929942;29;20444;-76
2021/08/28 08:57:05;;;;;;;1.20;1.00;;;;;;;;;;4901328;29;20193;-76
2021/08/28 09:00:10;;;;;;;3.23;1.00;;;;;;;;;;4912841;29;20668;-76
2021/08/28 09:03:35;;;;;;;1.10;0.90;;;;;;;;;;4895127;29;20527;-76
2021/08/28 09:06:46;;;;;;;3.00;1.40;;;;;;;;;;4899255;29;20189;-76
2021/08/28 09:09:50;;;;;;;1.00;0.90;;;;;;;;;;4914536;29;20205;-76
2021/08/28 09:12:54;;;;;;;2.00;1.17;;;;;;;;;;4941025;29;20189;-77
2021/08/28 09:16:02;;;;;;;1.13;1.03;;;;;;;;;;4930577;29;20208;-76
2021/08/28 09:19:06;;;;;;;1.67;1.07;;;;;;;;;;4927138;29;20192;-77
2021/08/28 09:22:32;;;;;;;1.77;0.90;;;;;;;;;;4920891;29;20224;-77
2021/08/28 09:25:40;;;;;;;1.40;1.30;;;;;;;;;;4901319;29;20198;-77
2021/08/28 09:28:53;;;;;;;1.17;1.00;;;;;;;;;;4924323;29;20189;-77
2021/08/28 09:31:57;;;;;;;1.50;1.40;;;;;;;;;;4946897;23;20234;-75
2021/08/28 09:35:08;;;;;;;1.03;0.90;;;;;;;;;;4978180;28;20203;-75
2021/08/28 09:38:15;;;;;;;1.33;0.90;;;;;;;;;;4985607;28;20191;-75
2021/08/28 09:41:29;;;;;;;1.13;1.03;;;;;;;;;;4957065;29;20226;-75
2021/08/28 09:44:39;;;;;;;1.03;0.83;;;;;;;;;;4957690;29;20192;-75
2021/08/28 09:47:44;;;;;;;3.30;1.00;;;;;;;;;;4956587;29;20203;-75
2021/08/28 09:50:49;;;;;;;2.87;0.80;;;;;;;;;;4957724;28;20220;-75
2021/08/28 09:54:00;;;;;;;1.70;1.00;;;;;;;;;;4953348;29;20195;-75
2021/08/28 09:57:04;;;;;;;1.43;0.97;;;;;;;;;;4934547;29;20647;-76
2021/08/28 10:00:08;;;;;;;1.10;0.87;;;;;;;;;;4935423;29;20184;-75
2021/08/28 10:03:25;;;;;;;3.67;0.90;;;;;;;;;;4935445;29;20675;-75
2021/08/28 10:06:29;;;;;;;4.57;0.70;;;;;;;;;;4949941;29;20203;-75
2021/08/28 10:09:33;;;;;;;0.90;0.70;;;;;;;;;;4953249;29;20192;-74
2021/08/28 10:12:37;;;;;;;1.57;0.83;;;;;;;;;;4953038;29;20223;-74
2021/08/28 10:15:43;;;;;;;1.67;0.80;;;;;;;;;;4953806;29;20215;-74
2021/08/28 10:18:48;;;;;;;1.63;0.63;;;;;;;;;;4953476;29;20195;-74
2021/08/28 10:21:53;;;;;;;0.90;0.70;;;;;;;;;;4942820;29;20231;-73
2021/08/28 10:24:58;;;;;;;0.80;0.80;;;;;;;;;;4964181;28;20597;-74
2021/08/28 10:28:04;;;;;;;1.53;0.70;;;;;;;;;;4944803;29;20651;-74
2021/08/28 10:31:11;;;;;;;1.43;0.90;;;;;;;;;;4934864;29;20615;-74
2021/08/28 10:34:15;;;;;;;1.57;1.47;;;;;;;;;;4955432;28;20195;-74
2021/08/28 10:37:19;;;;;;;0.73;0.70;;;;;;;;;;4952889;29;20180;-74
2021/08/28 10:40:32;;;;;;;1.33;0.80;;;;;;;;;;4952263;28;20207;-74
2021/08/28 10:43:37;;;;;;;1.47;0.70;;;;;;;;;;4938451;29;20191;-73
2021/08/28 10:46:43;;;;;;;0.80;0.63;;;;;;;;;;4963639;28;20544;-74
2021/08/28 10:50:07;;;;;;;1.17;0.47;;;;;;;;;;4963655;28;20199;-74
2021/08/28 10:53:12;;;;;;;0.90;0.60;;;;;;;;;;4953548;29;20512;-74
2021/08/28 10:56:16;;;;;;;0.63;0.63;;;;;;;;;;4952208;29;20211;-74
2021/08/28 10:59:22;;;;;;;0.70;0.63;;;;;;;;;;4934281;29;20659;-74
2021/08/28 11:02:50;;;;;;;0.50;0.50;;;;;;;;;;4934144;29;20220;-74
2021/08/28 11:06:13;;;;;;;1.07;0.77;;;;;;;;;;4951776;29;20199;-74
2021/08/28 11:09:17;;;;;;;1.83;0.60;;;;;;;;;;4953106;29;20195;-74
2021/08/28 11:12:21;;;;;;;1.20;0.70;;;;;;;;;;4953056;28;20227;-75
2021/08/28 11:15:29;;;;;;;0.40;0.40;;;;;;;;;;4952036;29;20215;-75
2021/08/28 11:18:43;;;;;;;1.13;0.53;;;;;;;;;;4952687;29;20694;-74
2021/08/28 11:21:50;;;;;;;1.33;0.50;;;;;;;;;;4933042;29;20691;-75
2021/08/28 11:24:56;;;;;;;0.60;0.60;;;;;;;;;;4942621;29;20204;-75
2021/08/28 11:28:03;;;;;;;2.33;0.70;;;;;;;;;;4952201;29;20516;-74
2021/08/28 11:31:08;;;;;;;1.80;0.73;;;;;;;;;;4962993;28;20579;-75
2021/08/28 11:34:13;;;;;;;1.20;1.10;;;;;;;;;;4951929;28;20195;-74
2021/08/28 11:37:26;;;;;;;0.80;0.80;;;;;;;;;;4952484;29;20207;-74
2021/08/28 11:40:32;;;;;;;5.77;5.03;;;;;;;;;;4952237;28;20200;-74
2021/08/28 11:43:40;;;;;;;2.03;1.30;;;;;;;;;;4952648;28;20270;-74
2021/08/28 11:46:47;;;;;;;0.93;0.83;;;;;;;;;;4962954;28;20242;-75
2021/08/28 11:49:59;;;;;;;1.50;1.30;;;;;;;;;;4952856;29;20867;-75
2021/08/28 11:53:04;;;;;;;3.63;3.20;;;;;;;;;;4951597;29;20183;-75
2021/08/28 11:56:20;;;;;;;3.43;2.90;;;;;;;;;;4951374;29;20489;-75
2021/08/28 11:59:41;;;;;;;2.50;1.73;;;;;;;;;;4951267;29;20544;-74
2021/08/28 12:02:45;;;;;;;2.37;1.17;;;;;;;;;;4951503;29;20199;-75
2021/08/28 12:05:53;;;;;;;1.10;0.90;;;;;;;;;;4944095;29;20682;-74
2021/08/28 12:08:58;;;;;;;1.33;0.80;;;;;;;;;;4952156;29;20179;-75
2021/08/28 12:12:02;;;;;;;3.43;1.30;;;;;;;;;;4941650;29;20563;-75
2021/08/28 12:15:08;;;;;;;1.43;1.10;;;;;;;;;;4950924;29;20203;-74
2021/08/28 12:18:12;;;;;;;2.90;1.40;;;;;;;;;;4950712;29;20642;-75
2021/08/28 12:21:17;;;;;;;5.07;3.50;;;;;;;;;;4950913;29;20223;-75
2021/08/28 12:24:25;;;;;;;3.03;2.27;;;;;;;;;;4951731;29;20198;-75
2021/08/28 12:27:29;;;;;;;2.07;1.87;;;;;;;;;;4951244;29;20631;-75
2021/08/28 12:30:34;;;;;;;2.43;1.20;;;;;;;;;;4961595;28;20654;-75
2021/08/28 12:33:38;;;;;;;5.67;2.70;;;;;;;;;;4951650;29;20207;-74
2021/08/28 12:36:46;;;;;;;2.87;2.00;;;;;;;;;;4939523;29;20689;-74
2021/08/28 12:39:52;;;;;;;2.60;1.90;;;;;;;;;;4951956;29;20883;-74
2021/08/28 12:42:56;;;;;;;16.17;10.43;;;;;;;;;;4953123;29;20179;-74
2021/08/28 12:46:00;;;;;;;4.17;2.93;;;;;;;;;;4954485;28;20218;-74
2021/08/28 12:49:21;;;;;;;2.10;1.30;;;;;;;;;;4953963;29;20203;-74
2021/08/28 12:53:03;;;;;;;3.93;1.67;;;;;;;;;;4958455;28;20223;-75
2021/08/28 12:56:08;;;;;;;3.67;2.47;;;;;;;;;;4960587;28;20227;-75
2021/08/28 12:59:19;;;;;;;3.77;3.47;;;;;;;;;;4955111;29;20191;-74
2021/08/28 13:02:27;;;;;;;1.50;1.40;;;;;;;;;;4952455;29;20222;-74
2021/08/28 13:05:32;;;;;;;2.40;1.70;;;;;;;;;;4948617;29;20195;-75
2021/08/28 13:08:37;;;;;;;2.80;1.23;;;;;;;;;;4954696;29;20486;-74
2021/08/28 13:11:53;;;;;;;3.40;1.90;;;;;;;;;;4946251;28;20226;-75
2021/08/28 13:14:57;;;;;;;2.63;1.00;;;;;;;;;;4936266;29;20189;-75
2021/08/28 13:18:09;;;;;;;2.20;1.60;;;;;;;;;;4947514;29;20191;-76
2021/08/28 13:21:13;;;;;;;1.40;1.20;;;;;;;;;;4954292;28;20227;-76
2021/08/28 13:24:19;;;;;;;2.23;1.87;;;;;;;;;;4954681;29;20631;-75
2021/08/28 13:27:24;;;;;;;1.27;1.07;;;;;;;;;;4942953;29;20184;-75
2021/08/28 13:30:31;;;;;;;2.17;1.80;;;;;;;;;;4946176;29;20544;-75
2021/08/28 13:33:35;;;;;;;5.87;1.97;;;;;;;;;;4948767;29;20215;-75
2021/08/28 13:36:40;;;;;;;1.87;1.77;;;;;;;;;;4954324;29;20544;-76
2021/08/28 13:39:46;;;;;;;4.67;4.27;;;;;;;;;;4954266;29;20535;-75
2021/08/28 13:42:50;;;;;;;2.30;1.70;;;;;;;;;;4953720;29;20551;-75
2021/08/28 13:45:55;;;;;;;1.67;1.33;;;;;;;;;;4954868;29;20179;-76
2021/08/28 13:48:59;;;;;;;4.10;1.40;;;;;;;;;;4954682;29;20188;-76
2021/08/28 13:52:05;;;;;;;1.30;1.20;;;;;;;;;;4954249;28;20227;-76
2021/08/28 13:55:11;;;;;;;1.60;1.23;;;;;;;;;;4954704;29;20192;-75
2021/08/28 13:58:15;;;;;;;2.00;1.30;;;;;;;;;;4938626;29;20180;-75
2021/08/28 14:01:19;;;;;;;1.90;1.20;;;;;;;;;;4958131;28;20214;-75
2021/08/28 14:04:23;;;;;;;2.60;1.50;;;;;;;;;;4957863;29;20504;-75
2021/08/28 14:07:29;;;;;;;2.07;1.37;;;;;;;;;;4966653;28;20179;-74
2021/08/28 14:10:34;;;;;;;3.77;2.00;;;;;;;;;;4942894;28;20207;-74
2021/08/28 14:13:38;;;;;;;2.53;1.37;;;;;;;;;;4942937;29;20199;-74
2021/08/28 14:16:42;;;;;;;2.33;1.43;;;;;;;;;;4953451;29;20219;-73
2021/08/28 14:19:47;;;;;;;2.27;1.40;;;;;;;;;;4952976;29;20199;-74
2021/08/28 14:22:51;;;;;;;2.60;1.50;;;;;;;;;;4954221;29;20188;-74
2021/08/28 14:25:55;;;;;;;1.57;1.37;;;;;;;;;;4953753;29;20187;-74
2021/08/28 14:29:00;;;;;;;4.57;1.77;;;;;;;;;;4934909;29;20192;-74
2021/08/28 14:32:05;;;;;;;2.90;1.50;;;;;;;;;;4934346;29;20228;-74
2021/08/28 14:35:10;;;;;;;3.63;1.60;;;;;;;;;;4934830;29;20518;-74
2021/08/28 14:38:14;;;;;;;2.87;1.50;;;;;;;;;;4944545;29;20192;-74
2021/08/28 14:41:19;;;;;;;2.33;1.40;;;;;;;;;;4952650;29;20218;-74
2021/08/28 14:44:23;;;;;;;1.90;1.40;;;;;;;;;;4952359;29;20225;-74
2021/08/28 14:47:29;;;;;;;1.47;1.37;;;;;;;;;;4953399;29;20191;-74
2021/08/28 14:50:33;;;;;;;2.47;1.50;;;;;;;;;;4963654;28;20658;-74
2021/08/28 14:53:38;;;;;;;1.50;1.40;;;;;;;;;;4941454;29;20195;-74
2021/08/28 14:56:42;;;;;;;2.50;1.53;;;;;;;;;;4952750;29;20678;-74
2021/08/28 14:59:47;;;;;;;2.50;1.90;;;;;;;;;;4953188;29;20203;-74
2021/08/28 15:02:51;;;;;;;17.70;10.60;;;;;;;;;;4950477;29;20211;-74
2021/08/28 15:05:55;;;;;;;13.07;8.83;;;;;;;;;;4951964;29;20194;-75
2021/08/28 15:08:59;;;;;;;7.33;6.27;;;;;;;;;;4952452;28;20199;-74
2021/08/28 15:12:03;;;;;;;8.60;3.50;;;;;;;;;;4952780;29;20713;-74
2021/08/28 15:15:08;;;;;;;4.83;2.53;;;;;;;;;;4952586;29;20179;-75
2021/08/28 15:18:12;;;;;;;2.40;2.20;;;;;;;;;;4963237;28;20215;-76
2021/08/28 15:21:16;;;;;;;2.80;2.50;;;;;;;;;;4952293;28;20223;-75
2021/08/28 15:24:20;;;;;;;2.80;2.50;;;;;;;;;;4953281;29;20203;-74
2021/08/28 15:27:25;;;;;;;2.73;1.43;;;;;;;;;;4963152;28;20650;-74
2021/08/28 15:30:29;;;;;;;2.43;1.70;;;;;;;;;;4951958;28;20199;-74
2021/08/28 15:33:33;;;;;;;1.83;1.40;;;;;;;;;;4947580;29;20215;-74
2021/08/28 15:36:38;;;;;;;3.03;1.50;;;;;;;;;;4952483;29;20215;-74
2021/08/28 15:39:44;;;;;;;2.57;1.20;;;;;;;;;;4951684;29;20207;-74
2021/08/28 15:42:49;;;;;;;1.80;1.20;;;;;;;;;;4952922;29;20218;-74
2021/08/28 15:45:54;;;;;;;1.20;1.10;;;;;;;;;;4951821;29;20659;-74
2021/08/28 15:48:58;;;;;;;1.83;1.10;;;;;;;;;;4960636;28;20192;-74
2021/08/28 15:52:04;;;;;;;2.87;1.63;;;;;;;;;;4954764;28;20223;-75
2021/08/28 15:55:11;;;;;;;2.63;1.80;;;;;;;;;;4979953;23;20238;-77
2021/08/28 15:58:16;;;;;;;2.07;1.50;;;;;;;;;;4985046;28;20214;-77
2021/08/28 16:01:20;;;;;;;3.50;0.80;;;;;;;;;;4974558;28;20226;-77
2021/08/28 16:04:24;;;;;;;1.30;0.93;;;;;;;;;;4975643;28;20186;-77
2021/08/28 16:07:31;;;;;;;1.73;0.80;;;;;;;;;;4962855;28;20633;-77
2021/08/28 16:10:38;;;;;;;1.10;0.90;;;;;;;;;;4975630;28;20222;-77
2021/08/28 16:13:45;;;;;;;2.00;1.03;;;;;;;;;;4963277;28;20190;-77
2021/08/28 16:16:50;;;;;;;1.20;1.10;;;;;;;;;;4962383;28;20222;-77
2021/08/28 16:19:54;;;;;;;0.80;0.77;;;;;;;;;;4973007;28;20198;-77
2021/08/28 16:22:58;;;;;;;1.00;0.90;;;;;;;;;;4974566;28;20186;-77
2021/08/28 16:26:03;;;;;;;1.60;1.50;;;;;;;;;;4974927;28;20206;-77
2021/08/28 16:29:07;;;;;;;2.23;1.77;;;;;;;;;;4973778;28;20194;-77
2021/08/28 16:32:11;;;;;;;2.17;1.70;;;;;;;;;;4973842;28;20218;-77
2021/08/28 16:35:15;;;;;;;1.47;1.37;;;;;;;;;;4973953;28;20194;-77
2021/08/28 16:38:23;;;;;;;1.00;1.00;;;;;;;;;;4962490;28;20210;-77
2021/08/28 16:41:27;;;;;;;1.30;1.10;;;;;;;;;;4974095;28;20218;-77
2021/08/28 16:44:31;;;;;;;2.27;1.20;;;;;;;;;;4973829;28;20195;-77
2021/08/28 16:47:35;;;;;;;3.73;1.10;;;;;;;;;;4962934;28;20183;-77
2021/08/28 16:50:39;;;;;;;1.63;0.80;;;;;;;;;;4973541;28;20210;-77
2021/08/28 16:53:43;;;;;;;3.93;1.10;;;;;;;;;;4962924;28;20543;-77
2021/08/28 16:56:47;;;;;;;0.83;0.80;;;;;;;;;;4963142;28;20183;-77
2021/08/28 16:59:51;;;;;;;1.10;1.00;;;;;;;;;;4973389;28;20527;-77
2021/08/28 17:02:55;;;;;;;1.43;0.97;;;;;;;;;;4963343;28;20349;-77
2021/08/28 17:05:59;;;;;;;1.10;1.00;;;;;;;;;;4970719;28;20677;-77
2021/08/28 17:09:04;;;;;;;1.40;1.20;;;;;;;;;;4962273;28;20203;-77
2021/08/28 17:12:08;;;;;;;1.47;1.00;;;;;;;;;;4973567;28;20218;-77
2021/08/28 17:15:12;;;;;;;1.47;1.17;;;;;;;;;;4973339;28;20654;-77
2021/08/28 17:18:16;;;;;;;1.00;0.87;;;;;;;;;;4973594;28;20685;-77
2021/08/28 17:21:21;;;;;;;2.00;1.70;;;;;;;;;;4954262;28;20698;-77
2021/08/28 17:24:25;;;;;;;1.93;1.70;;;;;;;;;;4954605;29;20183;-77
2021/08/28 17:27:29;;;;;;;4.63;1.50;;;;;;;;;;4972441;28;20194;-77
2021/08/28 17:30:33;;;;;;;2.87;1.40;;;;;;;;;;4951423;28;20207;-77
2021/08/28 17:33:37;;;;;;;3.43;1.40;;;;;;;;;;4978082;28;20187;-77
2021/08/28 17:36:41;;;;;;;1.53;1.40;;;;;;;;;;4977173;28;20187;-77
2021/08/28 17:39:46;;;;;;;1.40;1.30;;;;;;;;;;4976740;28;20199;-77
2021/08/28 17:42:50;;;;;;;2.40;1.43;;;;;;;;;;4973374;28;20206;-75
2021/08/28 17:45:54;;;;;;;4.90;4.50;;;;;;;;;;4972914;28;20198;-77
2021/08/28 17:48:58;;;;;;;9.30;8.07;;;;;;;;;;4973355;28;20523;-76
2021/08/28 17:52:02;;;;;;;9.30;8.37;;;;;;;;;;4973019;28;20222;-76
2021/08/28 17:55:07;;;;;;;7.47;6.73;;;;;;;;;;4972687;28;20210;-76
2021/08/28 17:58:11;;;;;;;4.60;4.20;;;;;;;;;;4973096;28;20630;-76
2021/08/28 18:01:16;;;;;;;4.47;4.07;;;;;;;;;;4973715;28;20230;-76
2021/08/28 18:04:31;;;;;;;11.40;6.27;;;;;;;;;;4972746;28;20202;-75
2021/08/28 18:07:36;;;;;;;2.83;2.33;;;;;;;;;;4954639;29;20183;-77
2021/08/28 18:10:40;;;;;;;1.90;1.60;;;;;;;;;;4972409;28;20226;-76
2021/08/28 18:13:45;;;;;;;2.87;1.60;;;;;;;;;;4972976;28;20195;-77
2021/08/28 18:16:48;;;;;;;1.90;1.20;;;;;;;;;;4961187;28;20199;-76
2021/08/28 18:19:53;;;;;;;2.40;1.30;;;;;;;;;;4973375;28;20198;-76
2021/08/28 18:22:57;;;;;;;3.30;1.40;;;;;;;;;;4972614;28;20179;-76
2021/08/28 18:26:01;;;;;;;1.53;1.40;;;;;;;;;;4972657;28;20191;-76
2021/08/28 18:29:07;;;;;;;1.50;1.30;;;;;;;;;;4972012;28;20535;-76
2021/08/28 18:32:12;;;;;;;2.40;1.67;;;;;;;;;;4972200;28;20218;-76
2021/08/28 18:35:17;;;;;;;1.60;1.50;;;;;;;;;;4972295;28;20206;-76
2021/08/28 18:38:21;;;;;;;3.13;2.00;;;;;;;;;;4972230;28;20572;-76
2021/08/28 18:41:26;;;;;;;2.37;1.67;;;;;;;;;;4952700;29;20231;-76
2021/08/28 18:44:32;;;;;;;2.00;1.60;;;;;;;;;;4958258;28;20202;-76
2021/08/28 18:47:36;;;;;;;1.67;1.57;;;;;;;;;;4961197;28;20179;-76